Time;durP1;ratioP1;P1;durP2;ratioP2;P2;SDS_P1;SDS_P2;PMS_P1;PMS_P2;Temp;Humidity;BMP_temperature;BMP_pressure;BME280_temperature;BME280_humidity;BME280_pressure;Samples;Min_cycle;Max_cycle;Signal;HPM_P1;HPM_P2
2021/12/01 00:00:17;;;;;;;0.00;0.00;;;7.00;99.90;;;;;;4959767;28;20045;-68
2021/12/01 00:02:43;;;;;;;0.00;0.00;;;7.00;99.90;;;;;;4959243;28;20210;-69
2021/12/01 00:05:10;;;;;;;0.00;0.00;;;7.00;99.90;;;;;;4959302;28;20102;-69
2021/12/01 00:07:36;;;;;;;0.55;0.55;;;8.00;99.90;;;;;;4958851;28;20054;-69
2021/12/01 00:10:09;;;;;;;0.00;0.00;;;7.10;99.90;;;;;;4960303;28;20070;-68
2021/12/01 00:12:35;;;;;;;0.00;0.00;;;7.20;99.90;;;;;;4957666;28;20055;-69
2021/12/01 00:15:01;;;;;;;0.00;0.00;;;7.40;99.90;;;;;;4959091;28;20082;-68
2021/12/01 00:17:27;;;;;;;0.00;0.00;;;7.20;99.90;;;;;;4958516;28;20086;-68
2021/12/01 00:19:53;;;;;;;0.00;0.00;;;8.70;99.90;;;;;;4958653;28;20307;-68
2021/12/01 00:22:19;;;;;;;0.00;0.00;;;7.50;99.90;;;;;;4959677;28;20043;-68
2021/12/01 00:24:45;;;;;;;0.00;0.00;;;7.50;99.90;;;;;;4958822;28;20047;-68
2021/12/01 00:27:11;;;;;;;0.43;0.40;;;7.60;99.90;;;;;;4958812;28;20049;-68
2021/12/01 00:29:38;;;;;;;0.00;0.00;;;7.70;99.90;;;;;;4960134;28;20448;-68
2021/12/01 00:32:04;;;;;;;0.00;0.00;;;8.00;99.90;;;;;;4958683;28;20453;-69
2021/12/01 00:34:32;;;;;;;0.00;0.00;;;7.70;99.90;;;;;;4959864;28;20105;-68
2021/12/01 00:36:58;;;;;;;0.00;0.00;;;7.80;99.90;;;;;;4960116;28;20046;-68
2021/12/01 00:39:23;;;;;;;0.20;0.20;;;9.10;99.90;;;;;;4959584;28;20058;-68
2021/12/01 00:41:50;;;;;;;0.00;0.00;;;8.00;99.90;;;;;;4958774;28;20129;-68
2021/12/01 00:44:16;;;;;;;0.15;0.03;;;8.00;99.90;;;;;;4961991;28;20500;-68
2021/12/01 00:49:26;;;;;;;2.67;0.52;;;8.20;99.90;;;;;;4962603;28;20386;-68
2021/12/01 00:51:52;;;;;;;0.00;0.00;;;9.00;99.90;;;;;;4962648;28;20063;-69
2021/12/01 00:54:18;;;;;;;0.10;0.10;;;9.10;99.90;;;;;;4962833;28;20105;-68
2021/12/01 00:56:44;;;;;;;0.15;0.15;;;8.40;99.90;;;;;;4961194;28;20533;-69
2021/12/01 00:59:10;;;;;;;0.20;0.20;;;8.40;99.90;;;;;;4963222;28;20837;-68
2021/12/01 01:01:36;;;;;;;0.63;0.63;;;8.60;99.90;;;;;;4962485;28;20109;-69
2021/12/01 01:04:03;;;;;;;0.00;0.00;;;8.70;99.90;;;;;;4961117;28;20058;-68
2021/12/01 01:06:28;;;;;;;0.10;0.10;;;8.50;99.90;;;;;;4962388;28;20062;-68
2021/12/01 01:08:54;;;;;;;0.00;0.00;;;8.60;99.90;;;;;;4961627;28;20062;-68
2021/12/01 01:16:52;;;;;;;2.60;1.15;;;8.60;99.90;;;;;;4962484;28;20372;-69
2021/12/01 01:19:19;;;;;;;0.80;0.80;;;9.00;99.90;;;;;;4961719;28;20047;-68
2021/12/01 01:21:49;;;;;;;0.00;0.00;;;8.70;99.90;;;;;;4962256;28;20406;-68
2021/12/01 01:24:16;;;;;;;0.20;0.20;;;9.50;99.90;;;;;;4962718;28;20090;-68
2021/12/01 01:26:41;;;;;;;0.20;0.20;;;8.80;99.90;;;;;;4961809;28;20051;-69
2021/12/01 01:29:08;;;;;;;0.00;0.00;;;8.80;99.90;;;;;;4960399;28;20826;-68
2021/12/01 01:31:35;;;;;;;0.40;0.40;;;8.80;99.90;;;;;;4961205;28;20533;-68
2021/12/01 01:34:02;;;;;;;0.47;0.47;;;8.80;99.90;;;;;;4961594;28;20539;-68
2021/12/01 01:36:28;;;;;;;0.00;0.00;;;8.90;99.90;;;;;;4960639;28;20059;-69
2021/12/01 01:38:55;;;;;;;0.20;0.20;;;8.90;99.90;;;;;;4962125;28;20054;-69
2021/12/01 01:41:21;;;;;;;0.10;0.10;;;9.40;99.90;;;;;;4961455;28;20065;-68
2021/12/01 01:43:48;;;;;;;0.10;0.05;;;8.90;99.90;;;;;;4962315;28;20406;-68
2021/12/01 01:46:15;;;;;;;0.03;0.03;;;9.00;99.90;;;;;;4961241;28;20046;-68
2021/12/01 01:48:53;;;;;;;0.00;0.00;;;9.30;99.90;;;;;;4962020;28;20070;-70
2021/12/01 01:51:22;;;;;;;0.28;0.28;;;9.10;99.90;;;;;;4961710;28;20042;-68
2021/12/01 01:53:49;;;;;;;0.20;0.20;;;9.30;99.90;;;;;;4959466;28;20061;-68
2021/12/01 01:56:16;;;;;;;0.10;0.10;;;9.70;99.90;;;;;;4961399;28;20410;-68
2021/12/01 01:58:41;;;;;;;0.00;0.00;;;9.30;99.90;;;;;;4961526;28;20046;-69
2021/12/01 02:01:11;;;;;;;0.00;0.00;;;9.10;99.90;;;;;;4959799;28;20070;-68
2021/12/01 02:03:37;;;;;;;0.00;0.00;;;9.10;99.90;;;;;;4960167;28;20118;-68
2021/12/01 02:06:03;;;;;;;0.00;0.00;;;9.80;99.90;;;;;;4960269;28;20088;-69
2021/12/01 02:08:30;;;;;;;0.00;0.00;;;9.30;99.90;;;;;;4961460;28;20053;-68
2021/12/01 02:10:58;;;;;;;0.10;0.10;;;9.00;99.90;;;;;;4959895;28;20090;-68
2021/12/01 02:13:25;;;;;;;0.00;0.00;;;9.00;99.90;;;;;;4961776;28;20050;-69
2021/12/01 02:15:53;;;;;;;0.10;0.10;;;9.10;99.90;;;;;;4961432;28;20047;-68
2021/12/01 02:18:20;;;;;;;0.00;0.00;;;9.50;99.90;;;;;;4959717;28;20050;-69
2021/12/01 02:21:06;;;;;;;0.00;0.00;;;9.00;99.90;;;;;;4961647;28;20066;-68
2021/12/01 02:23:34;;;;;;;0.10;0.10;;;9.00;99.90;;;;;;4960408;28;20097;-68
2021/12/01 02:26:00;;;;;;;0.00;0.00;;;9.50;99.90;;;;;;4960527;28;20039;-69
2021/12/01 02:28:25;;;;;;;0.00;0.00;;;9.00;99.90;;;;;;4961137;28;20050;-69
2021/12/01 02:30:51;;;;;;;0.05;0.05;;;9.10;99.90;;;;;;4961068;28;20039;-68
2021/12/01 02:33:17;;;;;;;0.00;0.00;;;9.00;99.90;;;;;;4959827;28;20126;-68
2021/12/01 02:35:43;;;;;;;0.35;0.35;;;9.00;99.90;;;;;;4959537;28;20461;-68
2021/12/01 02:38:09;;;;;;;0.08;0.08;;;9.10;99.90;;;;;;4992032;28;20431;-68
2021/12/01 02:40:34;;;;;;;0.00;0.00;;;9.40;99.90;;;;;;4992224;28;20129;-68
2021/12/01 02:43:00;;;;;;;0.32;0.28;;;8.90;99.90;;;;;;4959794;28;20054;-68
2021/12/01 02:45:26;;;;;;;0.10;0.10;;;8.90;99.90;;;;;;4960509;28;20043;-68
2021/12/01 02:47:51;;;;;;;0.00;0.00;;;9.00;99.90;;;;;;4991806;28;20054;-69
2021/12/01 02:50:17;;;;;;;0.03;0.03;;;8.80;99.90;;;;;;4960941;28;20046;-69
2021/12/01 02:52:43;;;;;;;0.00;0.00;;;8.80;99.90;;;;;;4958675;28;20121;-69
2021/12/01 02:55:10;;;;;;;0.00;0.00;;;8.80;99.90;;;;;;4960897;28;20129;-68
2021/12/01 02:57:49;;;;;;;0.13;0.13;;;9.70;99.90;;;;;;4959847;28;20125;-68
2021/12/01 03:00:17;;;;;;;0.00;0.00;;;9.40;99.90;;;;;;4958873;28;20046;-68
2021/12/01 03:02:44;;;;;;;0.98;0.43;;;9.70;99.90;;;;;;4960003;28;20062;-69
2021/12/01 03:05:10;;;;;;;0.30;0.30;;;9.10;99.90;;;;;;4959859;28;20517;-68
2021/12/01 03:07:37;;;;;;;0.00;0.00;;;8.90;99.90;;;;;;4959829;28;20050;-69
2021/12/01 03:10:04;;;;;;;0.00;0.00;;;8.90;99.90;;;;;;4958946;28;21108;-69
2021/12/01 03:12:32;;;;;;;0.00;0.00;;;8.90;99.90;;;;;;4959094;28;20047;-68
2021/12/01 03:14:57;;;;;;;0.00;0.00;;;9.70;99.90;;;;;;4960572;28;20039;-68
2021/12/01 03:17:27;;;;;;;0.00;0.00;;;9.60;99.90;;;;;;4959561;28;20041;-69
2021/12/01 03:19:53;;;;;;;0.00;0.00;;;9.20;99.90;;;;;;4959172;28;20061;-68
2021/12/01 03:22:19;;;;;;;0.00;0.00;;;9.10;99.90;;;;;;4960442;28;20046;-68
2021/12/01 03:24:45;;;;;;;0.00;0.00;;;9.70;99.90;;;;;;4959419;28;20054;-68
2021/12/01 03:27:11;;;;;;;0.00;0.00;;;9.10;99.90;;;;;;4958011;28;20553;-68
2021/12/01 03:29:36;;;;;;;0.00;0.00;;;9.50;99.90;;;;;;4960464;28;20895;-68
2021/12/01 03:32:03;;;;;;;0.00;0.00;;;9.10;99.90;;;;;;4959209;28;20092;-68
2021/12/01 03:34:29;;;;;;;0.00;0.00;;;9.10;99.90;;;;;;4958536;28;20127;-68
2021/12/01 03:36:55;;;;;;;0.00;0.00;;;9.20;99.90;;;;;;4959925;28;20579;-68
2021/12/01 03:39:21;;;;;;;0.00;0.00;;;9.10;99.90;;;;;;4960165;28;20055;-68
2021/12/01 03:41:46;;;;;;;0.00;0.00;;;9.10;99.90;;;;;;4958129;28;20723;-68
2021/12/01 03:44:12;;;;;;;0.00;0.00;;;9.10;99.90;;;;;;4959531;28;20930;-68
2021/12/01 03:46:38;;;;;;;0.00;0.00;;;9.10;99.90;;;;;;4960198;28;20574;-68
2021/12/01 03:49:03;;;;;;;0.00;0.00;;;9.50;99.90;;;;;;4959668;28;20441;-68
2021/12/01 03:51:29;;;;;;;0.10;0.10;;;9.30;99.90;;;;;;4960370;28;20054;-68
2021/12/01 03:53:55;;;;;;;0.00;0.00;;;9.10;99.90;;;;;;4959052;28;20129;-69
2021/12/01 03:56:21;;;;;;;0.00;0.00;;;9.30;99.90;;;;;;4958989;28;20069;-68
2021/12/01 03:58:47;;;;;;;0.00;0.00;;;9.20;99.90;;;;;;4958444;28;20047;-68
2021/12/01 04:01:13;;;;;;;0.00;0.00;;;9.30;99.90;;;;;;4957524;28;20074;-68
2021/12/01 04:03:39;;;;;;;0.10;0.10;;;9.40;99.90;;;;;;4957910;28;20074;-68
2021/12/01 04:06:05;;;;;;;0.00;0.00;;;9.20;99.90;;;;;;4959561;28;20054;-69
2021/12/01 04:08:32;;;;;;;0.00;0.00;;;9.20;99.90;;;;;;4959192;28;20086;-68
2021/12/01 04:10:58;;;;;;;0.00;0.00;;;9.80;99.90;;;;;;4956972;28;20051;-68
2021/12/01 04:13:24;;;;;;;0.00;0.00;;;9.20;99.90;;;;;;4959633;28;20072;-68
2021/12/01 04:15:49;;;;;;;0.00;0.00;;;9.20;99.90;;;;;;4960738;28;20118;-68
2021/12/01 04:18:15;;;;;;;0.00;0.00;;;9.20;99.90;;;;;;4963033;28;20397;-68
2021/12/01 04:20:41;;;;;;;0.00;0.00;;;9.40;99.90;;;;;;4962590;28;20481;-68
2021/12/01 04:23:07;;;;;;;0.00;0.00;;;9.20;99.90;;;;;;4963441;28;20086;-68
2021/12/01 04:25:33;;;;;;;0.00;0.00;;;9.90;99.90;;;;;;4962974;28;20046;-69
2021/12/01 04:27:59;;;;;;;0.00;0.00;;;9.10;99.90;;;;;;4963315;28;20050;-68
2021/12/01 04:30:26;;;;;;;0.00;0.00;;;9.00;99.90;;;;;;4961840;28;20502;-68
2021/12/01 04:32:52;;;;;;;0.00;0.00;;;9.40;99.90;;;;;;4963483;28;20602;-67
2021/12/01 04:35:19;;;;;;;0.00;0.00;;;9.50;99.90;;;;;;4962086;28;20127;-67
2021/12/01 04:37:46;;;;;;;0.00;0.00;;;9.50;99.90;;;;;;4962641;28;20131;-67
2021/12/01 04:40:14;;;;;;;0.00;0.00;;;9.00;99.90;;;;;;4962231;28;20047;-68
2021/12/01 04:42:40;;;;;;;0.00;0.00;;;9.00;99.90;;;;;;4962639;28;20046;-67
2021/12/01 04:45:13;;;;;;;0.00;0.00;;;9.40;99.90;;;;;;4961827;28;20042;-67
2021/12/01 04:47:44;;;;;;;0.00;0.00;;;9.10;99.90;;;;;;4961986;28;20054;-67
2021/12/01 04:50:12;;;;;;;0.00;0.00;;;8.80;99.90;;;;;;4961826;28;20051;-67
2021/12/01 04:52:38;;;;;;;0.00;0.00;;;9.10;99.90;;;;;;4963229;28;20110;-68
2021/12/01 04:55:05;;;;;;;0.00;0.00;;;9.00;99.90;;;;;;4961701;28;20046;-68
2021/12/01 04:57:31;;;;;;;0.00;0.00;;;9.00;99.90;;;;;;4962984;28;20047;-67
2021/12/01 04:59:57;;;;;;;0.00;0.00;;;9.40;99.90;;;;;;4962913;28;20068;-67
2021/12/01 05:02:22;;;;;;;0.00;0.00;;;9.00;99.90;;;;;;4959804;28;20059;-67
2021/12/01 05:04:48;;;;;;;0.00;0.00;;;9.10;99.90;;;;;;4961441;28;20613;-66
2021/12/01 05:07:14;;;;;;;0.00;0.00;;;9.20;99.90;;;;;;4962591;28;20548;-67
2021/12/01 05:09:40;;;;;;;0.00;0.00;;;9.20;99.90;;;;;;4962821;28;20038;-66
2021/12/01 05:12:07;;;;;;;0.00;0.00;;;9.10;99.90;;;;;;4960357;28;20055;-67
2021/12/01 05:14:38;;;;;;;0.00;0.00;;;9.10;99.90;;;;;;4963141;28;20047;-68
2021/12/01 05:17:05;;;;;;;0.00;0.00;;;9.10;99.90;;;;;;4962594;28;20102;-68
2021/12/01 05:19:30;;;;;;;0.10;0.10;;;9.20;99.90;;;;;;4962440;28;20046;-66
2021/12/01 05:21:56;;;;;;;0.00;0.00;;;9.10;99.90;;;;;;4962264;28;20051;-67
2021/12/01 05:24:22;;;;;;;0.00;0.00;;;9.10;99.90;;;;;;4960983;28;20057;-66
2021/12/01 05:26:48;;;;;;;0.00;0.00;;;9.00;99.90;;;;;;4961357;28;20043;-68
2021/12/01 05:29:16;;;;;;;0.00;0.00;;;9.00;99.90;;;;;;4961122;28;20070;-69
2021/12/01 05:31:42;;;;;;;0.00;0.00;;;9.10;99.90;;;;;;4960979;28;20061;-69
2021/12/01 05:34:08;;;;;;;0.00;0.00;;;9.10;99.90;;;;;;4962070;28;20795;-69
2021/12/01 05:36:34;;;;;;;0.00;0.00;;;8.90;99.90;;;;;;4961112;28;20057;-69
2021/12/01 05:38:59;;;;;;;0.00;0.00;;;9.40;99.90;;;;;;4960323;28;20038;-68
2021/12/01 05:41:25;;;;;;;0.00;0.00;;;9.10;99.90;;;;;;4960129;28;20050;-67
2021/12/01 05:43:51;;;;;;;0.00;0.00;;;9.50;99.90;;;;;;4961671;28;20051;-67
2021/12/01 05:46:17;;;;;;;0.00;0.00;;;9.30;99.90;;;;;;4961510;28;20082;-66
2021/12/01 05:48:43;;;;;;;0.00;0.00;;;8.90;99.90;;;;;;4961582;28;20414;-66
2021/12/01 05:51:09;;;;;;;0.00;0.00;;;8.80;99.90;;;;;;4960673;28;20486;-69
2021/12/01 05:53:35;;;;;;;0.00;0.00;;;8.70;99.90;;;;;;4962031;28;20102;-69
2021/12/01 05:56:01;;;;;;;0.00;0.00;;;9.30;99.90;;;;;;4958985;28;20278;-69
2021/12/01 05:58:26;;;;;;;0.00;0.00;;;9.00;99.90;;;;;;4961701;28;20047;-68
2021/12/01 06:00:52;;;;;;;0.00;0.00;;;8.70;99.90;;;;;;4960369;28;20058;-67
2021/12/01 06:03:18;;;;;;;0.00;0.00;;;8.70;99.90;;;;;;4961100;28;20505;-67
2021/12/01 06:05:44;;;;;;;0.00;0.00;;;8.80;99.90;;;;;;4959037;28;20051;-67
2021/12/01 06:08:10;;;;;;;0.00;0.00;;;9.30;99.90;;;;;;4961590;28;20394;-69
2021/12/01 06:10:36;;;;;;;0.00;0.00;;;9.00;99.90;;;;;;4960092;28;20050;-67
2021/12/01 06:13:02;;;;;;;0.00;0.00;;;9.10;99.90;;;;;;4961809;28;20058;-67
2021/12/01 06:15:31;;;;;;;0.00;0.00;;;8.60;99.90;;;;;;4959753;28;20543;-69
2021/12/01 06:17:58;;;;;;;0.00;0.00;;;8.60;99.90;;;;;;4961497;28;20126;-67
2021/12/01 06:20:24;;;;;;;0.00;0.00;;;8.60;99.90;;;;;;4960343;28;20069;-66
2021/12/01 06:22:52;;;;;;;0.05;0.05;;;8.80;99.90;;;;;;4960249;28;20055;-67
2021/12/01 06:25:18;;;;;;;0.00;0.00;;;8.60;99.90;;;;;;4959160;28;20129;-67
2021/12/01 06:27:44;;;;;;;0.00;0.00;;;8.70;99.90;;;;;;4959751;28;20145;-67
2021/12/01 06:30:10;;;;;;;0.00;0.00;;;8.60;99.90;;;;;;4959858;28;20133;-66
2021/12/01 06:32:36;;;;;;;0.05;0.05;;;8.50;99.90;;;;;;4960751;28;20409;-67
2021/12/01 06:35:02;;;;;;;0.00;0.00;;;8.60;99.90;;;;;;4961149;28;20039;-67
2021/12/01 06:37:28;;;;;;;0.00;0.00;;;8.50;99.90;;;;;;4961277;28;20487;-66
2021/12/01 06:39:54;;;;;;;0.00;0.00;;;9.30;99.90;;;;;;4960848;28;20098;-67
2021/12/01 06:42:19;;;;;;;0.00;0.00;;;8.40;99.90;;;;;;4958345;28;20046;-66
2021/12/01 06:44:45;;;;;;;0.08;0.08;;;9.00;99.90;;;;;;4959277;28;20046;-67
2021/12/01 06:47:11;;;;;;;0.00;0.00;;;8.60;99.90;;;;;;4959336;28;20062;-67
2021/12/01 06:49:36;;;;;;;0.00;0.00;;;9.40;99.90;;;;;;4958529;28;20442;-67
2021/12/01 06:52:02;;;;;;;0.00;0.00;;;8.40;99.90;;;;;;4959729;28;20086;-69
2021/12/01 06:54:28;;;;;;;0.00;0.00;;;8.40;99.90;;;;;;4960217;28;20095;-67
2021/12/01 06:56:54;;;;;;;0.00;0.00;;;8.50;99.90;;;;;;4958604;28;20047;-67
2021/12/01 06:59:19;;;;;;;0.00;0.00;;;8.40;99.90;;;;;;4959647;28;20393;-67
2021/12/01 07:01:45;;;;;;;0.28;0.28;;;8.30;99.90;;;;;;4960365;28;20581;-67
2021/12/01 07:04:13;;;;;;;0.00;0.00;;;8.40;99.90;;;;;;4958571;28;20059;-67
2021/12/01 07:06:39;;;;;;;0.00;0.00;;;8.60;99.90;;;;;;4958924;28;20051;-67
2021/12/01 07:09:05;;;;;;;0.00;0.00;;;8.30;99.90;;;;;;4957928;28;20054;-67
2021/12/01 07:11:31;;;;;;;0.00;0.00;;;8.80;99.90;;;;;;4960450;28;20138;-66
2021/12/01 07:13:57;;;;;;;0.00;0.00;;;8.70;99.90;;;;;;4960397;28;20486;-66
2021/12/01 07:16:23;;;;;;;0.00;0.00;;;8.50;99.90;;;;;;4960082;28;20189;-66
2021/12/01 07:18:49;;;;;;;0.00;0.00;;;8.80;99.90;;;;;;4959753;28;20121;-67
2021/12/01 07:21:15;;;;;;;0.00;0.00;;;8.30;99.90;;;;;;4959159;28;20046;-66
2021/12/01 07:23:41;;;;;;;0.00;0.00;;;8.40;99.90;;;;;;4960437;28;20050;-68
2021/12/01 07:26:06;;;;;;;0.00;0.00;;;8.20;99.90;;;;;;4958616;28;20051;-67
2021/12/01 07:28:32;;;;;;;0.00;0.00;;;9.40;99.90;;;;;;4959258;28;20050;-70
2021/12/01 07:30:59;;;;;;;0.00;0.00;;;8.50;99.90;;;;;;4960275;28;20498;-67
2021/12/01 07:33:25;;;;;;;0.00;0.00;;;8.90;99.90;;;;;;4958828;28;20185;-67
2021/12/01 07:35:51;;;;;;;0.00;0.00;;;8.50;99.90;;;;;;4959464;28;20125;-67
2021/12/01 07:38:17;;;;;;;0.00;0.00;;;8.30;99.90;;;;;;4959915;28;20042;-68
2021/12/01 07:40:43;;;;;;;0.10;0.10;;;8.30;99.90;;;;;;4959187;28;20632;-68
2021/12/01 07:43:08;;;;;;;0.00;0.00;;;9.00;99.90;;;;;;4959796;28;20054;-67
2021/12/01 07:45:35;;;;;;;0.00;0.00;;;8.20;99.90;;;;;;4959506;28;20039;-67
2021/12/01 07:48:01;;;;;;;0.00;0.00;;;8.30;99.90;;;;;;4960455;28;20058;-67
2021/12/01 07:50:26;;;;;;;0.00;0.00;;;8.30;99.90;;;;;;4959434;28;20051;-67
2021/12/01 07:52:52;;;;;;;0.00;0.00;;;8.30;99.90;;;;;;4957808;28;20275;-67
2021/12/01 07:55:18;;;;;;;0.00;0.00;;;8.50;99.90;;;;;;4957499;28;20047;-66
2021/12/01 07:57:45;;;;;;;0.00;0.00;;;8.20;99.90;;;;;;4959879;28;20060;-67
2021/12/01 08:00:11;;;;;;;0.10;0.10;;;8.60;99.90;;;;;;4959717;28;20062;-67
2021/12/01 08:02:37;;;;;;;0.00;0.00;;;8.20;99.90;;;;;;4957281;28;20059;-67
2021/12/01 08:05:04;;;;;;;0.00;0.00;;;8.20;99.90;;;;;;4959652;28;20146;-69
2021/12/01 08:07:34;;;;;;;0.00;0.00;;;8.20;99.90;;;;;;4960343;28;20105;-67
2021/12/01 08:10:00;;;;;;;0.00;0.00;;;8.30;99.90;;;;;;4959274;28;20049;-70
2021/12/01 08:12:25;;;;;;;0.00;0.00;;;8.20;99.90;;;;;;4957007;28;20043;-67
2021/12/01 08:14:51;;;;;;;0.00;0.00;;;9.00;99.90;;;;;;4959643;28;20101;-68
2021/12/01 08:17:16;;;;;;;0.00;0.00;;;8.20;99.90;;;;;;4958588;28;20064;-69
2021/12/01 08:19:42;;;;;;;0.00;0.00;;;8.20;99.90;;;;;;4957989;28;20556;-68
2021/12/01 08:22:09;;;;;;;0.00;0.00;;;8.20;99.90;;;;;;4950262;28;20051;-69
2021/12/01 08:24:35;;;;;;;0.00;0.00;;;8.30;99.90;;;;;;4948734;28;20039;-69
2021/12/01 08:27:01;;;;;;;0.00;0.00;;;8.30;99.90;;;;;;4953220;28;20062;-67
2021/12/01 08:29:27;;;;;;;0.00;0.00;;;8.40;99.90;;;;;;4957410;28;20051;-68
2021/12/01 08:31:53;;;;;;;0.00;0.00;;;8.40;99.90;;;;;;4959624;28;20082;-68
2021/12/01 08:34:18;;;;;;;0.00;0.00;;;8.40;99.90;;;;;;4958168;28;20125;-68
2021/12/01 08:36:46;;;;;;;0.32;0.32;;;8.50;99.90;;;;;;4959251;28;20050;-67
2021/12/01 08:39:12;;;;;;;0.00;0.00;;;8.40;99.90;;;;;;4956007;28;20102;-68
2021/12/01 08:41:38;;;;;;;0.00;0.00;;;9.20;99.90;;;;;;4957202;28;20058;-68
2021/12/01 08:44:04;;;;;;;0.20;0.20;;;8.40;99.90;;;;;;4958780;28;20557;-68
2021/12/01 08:46:30;;;;;;;0.00;0.00;;;8.40;99.90;;;;;;4958160;28;20102;-68
2021/12/01 08:48:58;;;;;;;0.00;0.00;;;8.50;99.90;;;;;;4956812;28;20457;-67
2021/12/01 08:51:25;;;;;;;0.00;0.00;;;8.50;99.90;;;;;;4959378;28;20538;-68
2021/12/01 08:53:51;;;;;;;0.00;0.00;;;9.50;99.90;;;;;;4957683;28;20042;-68
2021/12/01 08:56:17;;;;;;;0.00;0.00;;;9.20;99.90;;;;;;4955878;28;20490;-67
2021/12/01 08:58:43;;;;;;;0.00;0.00;;;8.60;99.90;;;;;;4959111;28;20153;-68
2021/12/01 09:01:09;;;;;;;0.00;0.00;;;9.30;99.90;;;;;;4958029;28;20211;-67
2021/12/01 09:03:36;;;;;;;0.10;0.10;;;8.50;99.90;;;;;;4960503;28;20063;-68
2021/12/01 09:06:03;;;;;;;0.00;0.00;;;9.00;99.90;;;;;;4961938;28;20116;-67
2021/12/01 09:08:29;;;;;;;0.00;0.00;;;9.30;99.90;;;;;;4961792;28;20055;-66
2021/12/01 09:10:58;;;;;;;0.10;0.10;;;8.60;99.90;;;;;;4957502;28;20100;-68
2021/12/01 09:13:26;;;;;;;0.00;0.00;;;8.70;99.90;;;;;;4960192;28;20067;-68
2021/12/01 09:15:53;;;;;;;0.00;0.00;;;9.30;99.90;;;;;;4961193;28;20050;-68
2021/12/01 09:18:20;;;;;;;0.00;0.00;;;8.80;99.90;;;;;;4962367;28;20467;-68
2021/12/01 09:20:46;;;;;;;0.00;0.00;;;8.70;99.90;;;;;;4962165;28;20038;-69
2021/12/01 09:23:12;;;;;;;0.00;0.00;;;8.80;99.90;;;;;;4961509;28;20078;-69
2021/12/01 09:25:37;;;;;;;0.00;0.00;;;9.40;99.90;;;;;;4961519;28;20074;-69
2021/12/01 09:28:03;;;;;;;0.00;0.00;;;8.90;99.90;;;;;;4962243;28;20046;-70
2021/12/01 09:30:29;;;;;;;0.00;0.00;;;9.00;99.90;;;;;;4962836;28;20070;-69
2021/12/01 09:32:55;;;;;;;0.00;0.00;;;9.20;99.90;;;;;;4961447;28;20453;-68
2021/12/01 09:35:21;;;;;;;0.00;0.00;;;9.40;99.90;;;;;;4960745;28;20089;-68
2021/12/01 09:37:46;;;;;;;0.00;0.00;;;8.90;99.90;;;;;;4962107;28;20503;-68
2021/12/01 09:40:17;;;;;;;0.00;0.00;;;8.90;99.90;;;;;;4960745;28;20417;-68
2021/12/01 09:42:49;;;;;;;0.00;0.00;;;9.40;99.90;;;;;;4961980;28;20556;-68
2021/12/01 09:45:17;;;;;;;0.00;0.00;;;8.80;99.90;;;;;;4962110;28;20105;-68
2021/12/01 09:47:43;;;;;;;0.00;0.00;;;9.80;99.90;;;;;;4961105;28;20564;-68
2021/12/01 09:50:10;;;;;;;0.00;0.00;;;9.10;99.90;;;;;;4954698;28;20049;-67
2021/12/01 09:52:35;;;;;;;0.00;0.00;;;8.70;99.90;;;;;;4946835;28;20130;-69
2021/12/01 09:55:02;;;;;;;0.00;0.00;;;8.70;99.90;;;;;;4959017;28;20466;-67
2021/12/01 09:57:28;;;;;;;0.00;0.00;;;8.50;99.90;;;;;;4961339;28;20042;-67
2021/12/01 09:59:53;;;;;;;0.00;0.00;;;8.60;99.90;;;;;;4961796;28;20109;-67
2021/12/01 10:02:21;;;;;;;0.20;0.20;;;8.50;99.90;;;;;;4960552;28;20065;-67
2021/12/01 10:04:47;;;;;;;0.00;0.00;;;8.40;99.90;;;;;;4955720;28;20525;-67
2021/12/01 10:07:16;;;;;;;0.00;0.00;;;8.50;99.90;;;;;;4941633;28;20047;-67
2021/12/01 10:09:44;;;;;;;0.00;0.00;;;8.70;99.90;;;;;;4941348;28;20043;-67
2021/12/01 10:12:10;;;;;;;0.00;0.00;;;8.50;99.90;;;;;;4942448;28;20498;-67
2021/12/01 10:14:36;;;;;;;0.00;0.00;;;8.50;99.90;;;;;;4939690;28;20132;-67
2021/12/01 10:17:02;;;;;;;0.00;0.00;;;8.80;99.90;;;;;;4942400;28;20043;-68
2021/12/01 10:19:28;;;;;;;1.65;0.45;;;8.40;99.90;;;;;;4942828;28;20045;-68
2021/12/01 10:21:55;;;;;;;0.00;0.00;;;8.50;99.90;;;;;;4941888;28;20490;-67
2021/12/01 10:24:26;;;;;;;0.00;0.00;;;8.50;99.90;;;;;;4940204;29;20462;-68
2021/12/01 10:26:57;;;;;;;0.00;0.00;;;8.60;99.90;;;;;;4940004;29;20066;-67
2021/12/01 10:29:34;;;;;;;0.00;0.00;;;8.50;99.90;;;;;;4941833;29;20070;-68
2021/12/01 10:32:19;;;;;;;0.00;0.00;;;8.50;99.90;;;;;;4942082;28;20039;-67
2021/12/01 10:34:47;;;;;;;;;;;8.60;99.90;;;;;;4940745;29;20147;-67
2021/12/01 10:37:26;;;;;;;0.00;0.00;;;9.70;99.90;;;;;;4940323;29;20021;-67
2021/12/01 10:40:15;;;;;;;0.00;0.00;;;8.60;99.90;;;;;;4940977;28;20054;-68
2021/12/01 10:42:55;;;;;;;0.00;0.00;;;8.90;99.90;;;;;;4941955;28;20291;-67
2021/12/01 10:45:24;;;;;;;0.00;0.00;;;8.60;99.90;;;;;;4940660;28;20081;-68
2021/12/01 10:47:50;;;;;;;0.00;0.00;;;8.60;99.90;;;;;;4939096;28;20499;-68
2021/12/01 10:50:19;;;;;;;0.00;0.00;;;8.60;99.90;;;;;;4940079;29;20876;-68
2021/12/01 10:52:49;;;;;;;0.00;0.00;;;8.60;99.90;;;;;;4941374;28;20057;-67
2021/12/01 10:55:24;;;;;;;0.00;0.00;;;8.80;99.90;;;;;;4939929;28;20058;-67
2021/12/01 10:58:03;;;;;;;;;;;8.50;99.90;;;;;;4941798;28;20051;-67
2021/12/01 11:00:44;;;;;;;0.00;0.00;;;8.60;99.90;;;;;;4940158;29;19923;-68
2021/12/01 11:03:17;;;;;;;0.00;0.00;;;8.70;99.90;;;;;;4929139;28;20089;-68
2021/12/01 11:05:45;;;;;;;0.00;0.00;;;8.70;99.90;;;;;;4958900;28;20050;-68
2021/12/01 11:08:18;;;;;;;0.00;0.00;;;9.00;99.90;;;;;;4958142;28;20412;-67
2021/12/01 11:10:49;;;;;;;0.00;0.00;;;8.80;99.90;;;;;;4959673;28;20447;-68
2021/12/01 11:13:17;;;;;;;0.00;0.00;;;8.70;99.90;;;;;;4959169;28;20538;-67
2021/12/01 11:15:45;;;;;;;0.00;0.00;;;9.70;99.90;;;;;;4957781;28;20054;-68
2021/12/01 11:18:23;;;;;;;0.00;0.00;;;8.60;99.90;;;;;;4958747;28;20706;-67
2021/12/01 11:20:51;;;;;;;0.00;0.00;;;8.60;99.90;;;;;;4960492;28;20054;-68
2021/12/01 11:23:31;;;;;;;0.00;0.00;;;9.20;99.90;;;;;;4942571;28;20051;-68
2021/12/01 11:26:08;;;;;;;0.00;0.00;;;8.30;99.90;;;;;;4957678;28;20047;-68
2021/12/01 11:28:43;;;;;;;0.00;0.00;;;8.30;99.90;;;;;;4959690;28;20051;-68
2021/12/01 11:31:17;;;;;;;0.00;0.00;;;8.30;99.90;;;;;;4959003;28;20043;-67
2021/12/01 11:33:44;;;;;;;0.00;0.00;;;8.30;99.90;;;;;;4959215;28;20070;-68
2021/12/01 11:36:12;;;;;;;0.00;0.00;;;8.60;99.90;;;;;;4960042;28;20182;-68
2021/12/01 11:38:39;;;;;;;0.00;0.00;;;8.30;99.90;;;;;;4960100;28;20070;-67
2021/12/01 11:41:06;;;;;;;0.47;0.38;;;8.30;99.90;;;;;;4958963;28;20048;-68
2021/12/01 11:43:34;;;;;;;0.00;0.00;;;9.70;99.90;;;;;;4958305;28;20066;-67
2021/12/01 11:46:01;;;;;;;0.00;0.00;;;9.20;99.90;;;;;;4960098;28;20097;-68
2021/12/01 11:48:59;;;;;;;0.00;0.00;;;8.90;99.90;;;;;;4958582;28;20047;-68
2021/12/01 11:51:30;;;;;;;0.00;0.00;;;8.50;99.90;;;;;;4955774;28;20066;-68
2021/12/01 11:54:05;;;;;;;0.00;0.00;;;8.70;99.90;;;;;;4958470;28;20579;-67
2021/12/01 11:56:34;;;;;;;0.00;0.00;;;8.60;99.90;;;;;;4958140;28;20129;-63
2021/12/01 11:59:14;;;;;;;0.00;0.00;;;8.70;99.90;;;;;;4960218;28;20058;-69
2021/12/01 12:01:50;;;;;;;0.00;0.00;;;8.70;99.90;;;;;;4957589;28;20517;-68
2021/12/01 12:04:21;;;;;;;0.00;0.00;;;8.50;99.90;;;;;;4938550;29;20105;-67
2021/12/01 12:06:52;;;;;;;0.00;0.00;;;8.40;99.90;;;;;;4974275;28;20047;-68
2021/12/01 12:09:22;;;;;;;0.00;0.00;;;9.40;99.90;;;;;;4958063;28;20051;-70
2021/12/01 12:12:05;;;;;;;0.40;0.40;;;8.30;99.90;;;;;;4959758;28;20042;-69
2021/12/01 12:14:43;;;;;;;0.00;0.00;;;8.30;99.90;;;;;;4957788;28;20046;-68
2021/12/01 12:17:13;;;;;;;0.10;0.10;;;8.40;99.90;;;;;;4959834;28;20058;-69
2021/12/01 12:19:55;;;;;;;0.00;0.00;;;8.40;99.90;;;;;;4958365;28;20043;-69
2021/12/01 12:22:34;;;;;;;0.00;0.00;;;8.30;99.90;;;;;;4959565;28;20046;-69
2021/12/01 12:25:01;;;;;;;0.00;0.00;;;8.20;99.90;;;;;;4957812;28;20133;-69
2021/12/01 12:27:47;;;;;;;0.00;0.00;;;7.90;99.90;;;;;;4958829;28;20486;-69
2021/12/01 12:30:34;;;;;;;0.00;0.00;;;9.10;99.90;;;;;;4958573;28;20051;-69
2021/12/01 12:33:21;;;;;;;1.77;0.22;;;8.10;99.90;;;;;;4959739;28;20054;-68
2021/12/01 12:35:51;;;;;;;0.47;0.35;;;8.10;99.90;;;;;;4959388;28;20047;-65
2021/12/01 12:38:18;;;;;;;0.00;0.00;;;8.10;99.90;;;;;;4960807;28;20470;-69
2021/12/01 12:40:45;;;;;;;0.00;0.00;;;9.00;99.90;;;;;;4955410;28;20069;-69
2021/12/01 12:43:23;;;;;;;0.10;0.10;;;8.70;99.90;;;;;;4962221;28;20142;-70
2021/12/01 12:46:05;;;;;;;1.25;0.60;;;8.10;99.90;;;;;;4975566;28;20445;-68
2021/12/01 12:48:41;;;;;;;0.00;0.00;;;8.10;99.90;;;;;;4942447;29;20078;-66
2021/12/01 12:51:12;;;;;;;0.00;0.00;;;8.00;99.90;;;;;;4941870;29;20039;-67
2021/12/01 12:54:01;;;;;;;0.20;0.20;;;8.00;99.90;;;;;;4941873;28;20391;-70
2021/12/01 12:56:33;;;;;;;0.00;0.00;;;8.00;99.90;;;;;;4943563;28;20066;-68
2021/12/01 12:59:28;;;;;;;0.00;0.00;;;8.00;99.90;;;;;;4956424;28;20046;-70
2021/12/01 13:02:09;;;;;;;0.00;0.00;;;8.00;99.90;;;;;;4979166;28;20413;-69
2021/12/01 13:04:47;;;;;;;0.00;0.00;;;7.90;99.90;;;;;;4955151;28;20054;-70
2021/12/01 13:07:42;;;;;;;0.00;0.00;;;7.90;99.90;;;;;;4961101;28;20076;-71
2021/12/01 13:10:19;;;;;;;0.47;0.47;;;7.70;99.90;;;;;;4961322;28;20039;-70